sensor_id;sensor_type;location;lat;lon;timestamp;pressure;altitude;pressure_sealevel;temperature;humidity
27864;BME280;15980;51.092;13.916;2023-02-08T00:07:44;101116.84;;;-6.83;88.18
27864;BME280;15980;51.092;13.916;2023-02-08T00:17:45;101127.19;;;-6.88;88.29
27864;BME280;15980;51.092;13.916;2023-02-08T00:27:45;101119.34;;;-6.90;88.31
27864;BME280;15980;51.092;13.916;2023-02-08T00:37:45;101119.81;;;-6.94;87.96
27864;BME280;15980;51.092;13.916;2023-02-08T00:47:46;101112.00;;;-7.04;88.08
27864;BME280;15980;51.092;13.916;2023-02-08T00:57:46;101108.16;;;-7.10;87.61
27864;BME280;15980;51.092;13.916;2023-02-08T01:07:46;101101.50;;;-7.14;87.45
27864;BME280;15980;51.092;13.916;2023-02-08T01:17:46;101096.66;;;-7.18;87.92
27864;BME280;15980;51.092;13.916;2023-02-08T01:27:47;101095.66;;;-7.25;87.15
27864;BME280;15980;51.092;13.916;2023-02-08T01:37:47;101091.63;;;-7.38;86.58
27864;BME280;15980;51.092;13.916;2023-02-08T01:47:57;101087.63;;;-7.42;86.45
27864;BME280;15980;51.092;13.916;2023-02-08T01:58:00;101085.78;;;-7.49;86.58
27864;BME280;15980;51.092;13.916;2023-02-08T02:08:02;101080.97;;;-7.46;86.53
27864;BME280;15980;51.092;13.916;2023-02-08T02:18:05;101077.97;;;-7.51;86.36
27864;BME280;15980;51.092;13.916;2023-02-08T02:38:43;101070.13;;;-7.44;86.85
27864;BME280;15980;51.092;13.916;2023-02-08T02:59:18;101065.97;;;-7.55;86.77
27864;BME280;15980;51.092;13.916;2023-02-08T03:20:07;101071.50;;;-7.24;88.10
27864;BME280;15980;51.092;13.916;2023-02-08T03:30:12;101070.50;;;-7.23;87.76
27864;BME280;15980;51.092;13.916;2023-02-08T03:40:28;101089.66;;;-7.19;87.63
27864;BME280;15980;51.092;13.916;2023-02-08T03:50:33;101091.31;;;-6.94;89.20
27864;BME280;15980;51.092;13.916;2023-02-08T04:00:38;101096.75;;;-6.55;89.50
27864;BME280;15980;51.092;13.916;2023-02-08T04:10:39;101094.38;;;-6.34;89.95
27864;BME280;15980;51.092;13.916;2023-02-08T04:20:40;101086.63;;;-6.12;89.86
27864;BME280;15980;51.092;13.916;2023-02-08T04:30:40;101094.41;;;-5.94;89.53
27864;BME280;15980;51.092;13.916;2023-02-08T04:40:40;101084.66;;;-5.56;89.36
27864;BME280;15980;51.092;13.916;2023-02-08T04:50:41;101076.22;;;-5.45;88.69
27864;BME280;15980;51.092;13.916;2023-02-08T05:00:41;101074.13;;;-5.35;88.90
27864;BME280;15980;51.092;13.916;2023-02-08T05:10:44;101083.16;;;-5.36;88.26
27864;BME280;15980;51.092;13.916;2023-02-08T05:20:44;101075.84;;;-5.42;87.98
27864;BME280;15980;51.092;13.916;2023-02-08T05:30:45;101090.28;;;-5.51;87.18
27864;BME280;15980;51.092;13.916;2023-02-08T05:40:45;101093.38;;;-5.62;87.37
27864;BME280;15980;51.092;13.916;2023-02-08T05:50:46;101093.97;;;-5.52;87.93
27864;BME280;15980;51.092;13.916;2023-02-08T06:00:46;101099.88;;;-5.57;87.65
27864;BME280;15980;51.092;13.916;2023-02-08T06:10:47;101097.91;;;-5.63;87.05
27864;BME280;15980;51.092;13.916;2023-02-08T06:20:47;101112.06;;;-5.54;87.38
27864;BME280;15980;51.092;13.916;2023-02-08T06:30:49;101111.53;;;-5.50;86.97
27864;BME280;15980;51.092;13.916;2023-02-08T06:40:49;101128.34;;;-5.41;86.17
27864;BME280;15980;51.092;13.916;2023-02-08T06:50:52;101134.66;;;-5.34;86.19
27864;BME280;15980;51.092;13.916;2023-02-08T07:00:53;101144.28;;;-5.25;85.98
27864;BME280;15980;51.092;13.916;2023-02-08T07:10:53;101148.41;;;-5.14;85.68
27864;BME280;15980;51.092;13.916;2023-02-08T07:20:53;101145.97;;;-5.01;85.67
27864;BME280;15980;51.092;13.916;2023-02-08T07:30:54;101140.31;;;-4.83;85.20
27864;BME280;15980;51.092;13.916;2023-02-08T07:41:05;101143.31;;;-4.63;84.20
27864;BME280;15980;51.092;13.916;2023-02-08T07:51:07;101157.69;;;-4.42;84.25
27864;BME280;15980;51.092;13.916;2023-02-08T08:01:07;101145.25;;;-4.20;83.68
27864;BME280;15980;51.092;13.916;2023-02-08T08:11:07;101161.22;;;-3.97;83.10
27864;BME280;15980;51.092;13.916;2023-02-08T08:21:08;101164.09;;;-3.84;82.05
27864;BME280;15980;51.092;13.916;2023-02-08T08:31:18;101166.84;;;-3.62;81.40
27864;BME280;15980;51.092;13.916;2023-02-08T08:41:18;101171.72;;;-3.51;80.21
27864;BME280;15980;51.092;13.916;2023-02-08T08:51:19;101173.91;;;-3.25;79.74
27864;BME280;15980;51.092;13.916;2023-02-08T09:01:19;101184.22;;;-3.07;79.83
27864;BME280;15980;51.092;13.916;2023-02-08T09:11:19;101198.69;;;-2.87;79.04
27864;BME280;15980;51.092;13.916;2023-02-08T09:21:22;101186.41;;;-2.75;77.74
27864;BME280;15980;51.092;13.916;2023-02-08T09:31:28;101208.94;;;-2.55;77.69
27864;BME280;15980;51.092;13.916;2023-02-08T09:52:09;101215.69;;;-2.37;76.20
27864;BME280;15980;51.092;13.916;2023-02-08T10:02:43;101213.56;;;-2.21;76.39
27864;BME280;15980;51.092;13.916;2023-02-08T10:12:56;101205.81;;;-2.09;75.80
27864;BME280;15980;51.092;13.916;2023-02-08T10:33:14;101186.31;;;-1.76;74.93
27864;BME280;15980;51.092;13.916;2023-02-08T10:53:32;101149.38;;;-1.54;74.40
27864;BME280;15980;51.092;13.916;2023-02-08T11:03:32;101129.94;;;-1.43;73.34
27864;BME280;15980;51.092;13.916;2023-02-08T11:13:39;101126.72;;;-1.25;73.04
27864;BME280;15980;51.092;13.916;2023-02-08T11:23:41;101123.22;;;-1.06;72.03
27864;BME280;15980;51.092;13.916;2023-02-08T11:33:58;101121.41;;;-0.79;71.53
27864;BME280;15980;51.092;13.916;2023-02-08T11:44:02;101130.31;;;-0.66;69.87
27864;BME280;15980;51.092;13.916;2023-02-08T11:54:04;101121.41;;;-0.40;69.17
27864;BME280;15980;51.092;13.916;2023-02-08T12:04:15;101114.75;;;-0.30;68.17
27864;BME280;15980;51.092;13.916;2023-02-08T12:14:42;101120.13;;;-0.24;67.21
27864;BME280;15980;51.092;13.916;2023-02-08T12:24:49;101109.31;;;-0.17;66.89
27864;BME280;15980;51.092;13.916;2023-02-08T12:35:09;101100.78;;;-0.08;67.29
27864;BME280;15980;51.092;13.916;2023-02-08T12:45:36;101102.59;;;0.12;66.22
27864;BME280;15980;51.092;13.916;2023-02-08T12:55:41;101097.41;;;0.10;65.78
27864;BME280;15980;51.092;13.916;2023-02-08T13:05:43;101089.50;;;0.15;65.11
27864;BME280;15980;51.092;13.916;2023-02-08T13:15:51;101065.34;;;0.27;64.63
27864;BME280;15980;51.092;13.916;2023-02-08T13:25:59;101045.34;;;0.41;65.26
27864;BME280;15980;51.092;13.916;2023-02-08T13:36:02;101035.63;;;0.34;63.65
27864;BME280;15980;51.092;13.916;2023-02-08T13:46:03;101038.50;;;0.45;63.32
27864;BME280;15980;51.092;13.916;2023-02-08T13:56:11;101033.25;;;0.50;63.25
27864;BME280;15980;51.092;13.916;2023-02-08T14:06:22;101028.09;;;0.42;63.50
27864;BME280;15980;51.092;13.916;2023-02-08T14:26:24;101025.72;;;0.21;63.49
27864;BME280;15980;51.092;13.916;2023-02-08T14:36:29;101024.94;;;0.14;64.39
27864;BME280;15980;51.092;13.916;2023-02-08T14:56:59;101013.19;;;-0.12;65.22
27864;BME280;15980;51.092;13.916;2023-02-08T15:17:47;101019.94;;;-0.47;65.09
27864;BME280;15980;51.092;13.916;2023-02-08T15:27:55;101002.13;;;-0.61;66.82
27864;BME280;15980;51.092;13.916;2023-02-08T15:37:56;100986.22;;;-0.83;67.34
27864;BME280;15980;51.092;13.916;2023-02-08T15:47:57;100979.81;;;-1.08;69.06
27864;BME280;15980;51.092;13.916;2023-02-08T15:58:03;100981.44;;;-1.34;69.59
27864;BME280;15980;51.092;13.916;2023-02-08T16:08:05;100963.22;;;-1.71;70.56
27864;BME280;15980;51.092;13.916;2023-02-08T16:18:39;100953.19;;;-1.97;70.87
27864;BME280;15980;51.092;13.916;2023-02-08T16:28:40;100961.38;;;-2.18;71.94
27864;BME280;15980;51.092;13.916;2023-02-08T16:38:40;100952.63;;;-2.40;72.74
27864;BME280;15980;51.092;13.916;2023-02-08T16:58:42;100948.22;;;-2.96;75.15
27864;BME280;15980;51.092;13.916;2023-02-08T17:08:42;100938.56;;;-3.11;75.76
27864;BME280;15980;51.092;13.916;2023-02-08T17:18:43;100945.56;;;-3.17;75.69
27864;BME280;15980;51.092;13.916;2023-02-08T17:28:44;100933.41;;;-3.13;75.96
27864;BME280;15980;51.092;13.916;2023-02-08T17:38:45;100931.69;;;-3.21;76.04
27864;BME280;15980;51.092;13.916;2023-02-08T17:48:46;100907.00;;;-3.37;76.34
27864;BME280;15980;51.092;13.916;2023-02-08T17:58:47;100903.69;;;-3.39;77.50
27864;BME280;15980;51.092;13.916;2023-02-08T18:08:48;100904.94;;;-3.07;77.09
27864;BME280;15980;51.092;13.916;2023-02-08T18:18:48;100896.81;;;-2.86;76.66
27864;BME280;15980;51.092;13.916;2023-02-08T18:28:49;100896.03;;;-2.73;76.61
27864;BME280;15980;51.092;13.916;2023-02-08T18:38:52;100892.13;;;-2.71;76.70
27864;BME280;15980;51.092;13.916;2023-02-08T18:48:53;100907.59;;;-2.79;76.73
27864;BME280;15980;51.092;13.916;2023-02-08T18:58:54;100908.59;;;-3.15;76.72
27864;BME280;15980;51.092;13.916;2023-02-08T19:08:58;100885.78;;;-3.32;77.50
27864;BME280;15980;51.092;13.916;2023-02-08T19:18:59;100865.69;;;-3.43;78.18
27864;BME280;15980;51.092;13.916;2023-02-08T19:29:00;100836.63;;;-3.33;78.78
27864;BME280;15980;51.092;13.916;2023-02-08T19:39:03;100825.28;;;-2.94;77.73
27864;BME280;15980;51.092;13.916;2023-02-08T19:49:04;100810.88;;;-2.73;76.64
27864;BME280;15980;51.092;13.916;2023-02-08T19:59:06;100800.34;;;-2.74;76.10
27864;BME280;15980;51.092;13.916;2023-02-08T20:09:07;100780.53;;;-2.67;75.11
27864;BME280;15980;51.092;13.916;2023-02-08T20:19:08;100780.53;;;-2.67;74.16
27864;BME280;15980;51.092;13.916;2023-02-08T20:29:09;100770.81;;;-2.68;74.15
27864;BME280;15980;51.092;13.916;2023-02-08T20:39:15;100753.22;;;-2.70;73.78
27864;BME280;15980;51.092;13.916;2023-02-08T20:49:17;100752.19;;;-2.69;73.36
27864;BME280;15980;51.092;13.916;2023-02-08T20:59:17;100741.25;;;-2.68;72.95
27864;BME280;15980;51.092;13.916;2023-02-08T21:09:19;100732.56;;;-2.63;72.08
27864;BME280;15980;51.092;13.916;2023-02-08T21:19:19;100705.72;;;-2.57;71.19
27864;BME280;15980;51.092;13.916;2023-02-08T21:29:20;100693.13;;;-2.36;70.05
27864;BME280;15980;51.092;13.916;2023-02-08T21:39:21;100668.06;;;-2.17;68.71
27864;BME280;15980;51.092;13.916;2023-02-08T21:49:21;100661.66;;;-2.03;68.55
27864;BME280;15980;51.092;13.916;2023-02-08T21:59:21;100652.34;;;-2.00;68.26
27864;BME280;15980;51.092;13.916;2023-02-08T22:09:22;100633.09;;;-2.04;68.14
27864;BME280;15980;51.092;13.916;2023-02-08T22:19:22;100644.31;;;-2.13;68.91
27864;BME280;15980;51.092;13.916;2023-02-08T22:29:22;100652.56;;;-2.22;69.22
27864;BME280;15980;51.092;13.916;2023-02-08T22:39:23;100636.63;;;-2.23;69.47
27864;BME280;15980;51.092;13.916;2023-02-08T22:49:23;100620.09;;;-2.20;68.40
27864;BME280;15980;51.092;13.916;2023-02-08T22:59:23;100607.25;;;-2.18;68.70
27864;BME280;15980;51.092;13.916;2023-02-08T23:09:24;100599.00;;;-2.16;67.64
27864;BME280;15980;51.092;13.916;2023-02-08T23:19:25;100577.50;;;-2.16;67.18
27864;BME280;15980;51.092;13.916;2023-02-08T23:29:25;100585.72;;;-2.05;66.39
27864;BME280;15980;51.092;13.916;2023-02-08T23:39:26;100579.72;;;-2.07;66.44
27864;BME280;15980;51.092;13.916;2023-02-08T23:49:26;100584.31;;;-2.14;66.65
27864;BME280;15980;51.092;13.916;2023-02-08T23:59:26;100576.03;;;-2.26;66.94
